Time;durP1;ratioP1;P1;durP2;ratioP2;P2;SDS_P1;SDS_P2;PMS_P1;PMS_P2;Temp;Humidity;BMP_temperature;BMP_pressure;BME280_temperature;BME280_humidity;BME280_pressure;Samples;Min_cycle;Max_cycle;Signal;HPM_P1;HPM_P2
2022/05/15 00:00:57;;;;;;;7.25;5.03;;;19.40;99.90;;;;;;5099307;28;20031;-75
2022/05/15 00:03:24;;;;;;;11.77;5.68;;;19.30;99.90;;;;;;5097964;28;20024;-75
2022/05/15 00:05:54;;;;;;;9.38;5.50;;;19.30;99.90;;;;;;5099127;28;20028;-75
2022/05/15 00:08:21;;;;;;;9.07;5.10;;;19.20;99.90;;;;;;5097853;28;20021;-75
2022/05/15 00:10:47;;;;;;;11.27;5.20;;;19.10;99.90;;;;;;5099290;28;20028;-75
2022/05/15 00:13:13;;;;;;;7.70;5.43;;;19.10;99.90;;;;;;5097463;28;20034;-75
2022/05/15 00:15:40;;;;;;;13.70;5.13;;;19.10;99.90;;;;;;5091604;28;20095;-75
2022/05/15 00:18:07;;;;;;;8.85;5.32;;;19.10;99.90;;;;;;5093049;28;20547;-75
2022/05/15 00:20:34;;;;;;;10.77;5.18;;;19.10;99.90;;;;;;5099000;28;20527;-74
2022/05/15 00:23:00;;;;;;;11.88;4.65;;;19.10;99.90;;;;;;5097486;28;20031;-75
2022/05/15 00:25:26;;;;;;;9.85;4.82;;;19.10;99.90;;;;;;5099031;28;20028;-74
2022/05/15 00:27:52;;;;;;;9.18;4.53;;;19.10;99.90;;;;;;5097411;28;20027;-75
2022/05/15 00:30:20;;;;;;;6.55;4.78;;;19.00;99.90;;;;;;5097424;28;20020;-75
2022/05/15 00:32:47;;;;;;;11.32;5.43;;;18.90;99.90;;;;;;5098591;28;20023;-75
2022/05/15 00:35:14;;;;;;;9.38;5.10;;;18.80;99.90;;;;;;5099037;28;20117;-74
2022/05/15 00:37:39;;;;;;;6.05;4.82;;;18.80;99.90;;;;;;5097303;28;20078;-74
2022/05/15 00:40:10;;;;;;;12.45;5.00;;;18.70;99.90;;;;;;5098697;28;20032;-75
2022/05/15 00:42:36;;;;;;;7.88;5.32;;;18.60;99.90;;;;;;5098172;28;20028;-75
2022/05/15 00:45:04;;;;;;;7.57;4.97;;;18.60;99.90;;;;;;5098269;28;20404;-75
2022/05/15 00:47:30;;;;;;;8.70;4.95;;;18.50;99.90;;;;;;5097296;28;20036;-75
2022/05/15 00:49:56;;;;;;;10.98;5.45;;;18.40;99.90;;;;;;5097546;28;20076;-74
2022/05/15 00:52:28;;;;;;;9.88;5.60;;;18.40;99.90;;;;;;5098292;28;20809;-75
2022/05/15 00:55:06;;;;;;;9.75;4.88;;;18.40;99.90;;;;;;5098435;28;20539;-75
2022/05/15 00:57:39;;;;;;;11.35;5.00;;;18.40;99.90;;;;;;5098131;28;20109;-75
2022/05/15 01:00:19;;;;;;;9.68;5.28;;;18.40;99.90;;;;;;5097039;28;20023;-72
2022/05/15 01:03:09;;;;;;;9.05;5.97;;;18.40;99.90;;;;;;5098249;28;20035;-75
2022/05/15 01:05:38;;;;;;;12.35;5.63;;;18.40;99.90;;;;;;5098085;28;20026;-74
2022/05/15 01:08:05;;;;;;;15.48;6.22;;;18.40;99.90;;;;;;5098176;28;20369;-75
2022/05/15 01:10:34;;;;;;;8.70;5.43;;;18.40;99.90;;;;;;5098133;28;20031;-74
2022/05/15 01:13:00;;;;;;;13.75;5.60;;;18.40;99.90;;;;;;5096477;28;20111;-72
2022/05/15 01:15:28;;;;;;;10.57;5.07;;;18.40;99.90;;;;;;5091776;28;20017;-72
2022/05/15 01:17:55;;;;;;;15.05;6.30;;;18.30;99.90;;;;;;5079650;28;20035;-74
2022/05/15 01:20:25;;;;;;;8.70;5.07;;;18.30;99.90;;;;;;5096016;28;20028;-74
2022/05/15 01:22:52;;;;;;;11.30;6.10;;;18.20;99.90;;;;;;5097686;28;20020;-74
2022/05/15 01:25:30;;;;;;;11.00;5.82;;;18.20;99.90;;;;;;5097869;28;20026;-74
2022/05/15 01:28:07;;;;;;;10.43;5.97;;;18.20;99.90;;;;;;5096375;28;20048;-72
2022/05/15 01:30:35;;;;;;;10.75;5.57;;;18.10;99.90;;;;;;5097937;28;20027;-72
2022/05/15 01:33:01;;;;;;;10.23;5.53;;;18.10;99.90;;;;;;5097517;28;20020;-72
2022/05/15 01:35:27;;;;;;;8.32;5.88;;;18.00;99.90;;;;;;5096543;28;20020;-72
2022/05/15 01:37:53;;;;;;;12.63;6.10;;;18.00;99.90;;;;;;5097467;28;20012;-73
2022/05/15 01:40:19;;;;;;;10.80;5.35;;;18.00;99.90;;;;;;5097649;28;20020;-72
2022/05/15 01:42:45;;;;;;;10.63;5.93;;;18.00;99.90;;;;;;5096982;28;20031;-72
2022/05/15 01:45:12;;;;;;;10.63;5.80;;;18.00;99.90;;;;;;5095846;28;20043;-72
2022/05/15 01:47:38;;;;;;;16.58;5.60;;;18.00;99.90;;;;;;5096266;28;20021;-72
2022/05/15 01:50:05;;;;;;;11.98;6.00;;;17.90;99.90;;;;;;5096386;28;20073;-72
2022/05/15 01:52:31;;;;;;;13.57;6.32;;;17.90;99.90;;;;;;5096161;28;20057;-72
2022/05/15 01:54:56;;;;;;;12.27;6.85;;;17.90;99.90;;;;;;5096340;28;20035;-72
2022/05/15 01:57:23;;;;;;;11.15;6.60;;;17.90;99.90;;;;;;5096956;28;20028;-72
2022/05/15 01:59:49;;;;;;;9.73;6.07;;;17.80;99.90;;;;;;5095902;28;20091;-72
2022/05/15 02:02:15;;;;;;;12.70;5.28;;;17.80;99.90;;;;;;5096012;28;20051;-73
2022/05/15 02:04:41;;;;;;;12.80;6.32;;;17.80;99.90;;;;;;5097341;28;20453;-72
2022/05/15 02:07:07;;;;;;;13.43;6.50;;;17.80;99.90;;;;;;5097371;28;20035;-73
2022/05/15 02:09:33;;;;;;;14.77;7.53;;;17.90;99.90;;;;;;5100474;28;20013;-73
2022/05/15 02:11:59;;;;;;;13.73;6.93;;;17.80;99.90;;;;;;5101747;28;20028;-73
2022/05/15 02:14:25;;;;;;;12.88;6.10;;;17.80;99.90;;;;;;5102828;28;20115;-73
2022/05/15 02:16:51;;;;;;;13.50;6.50;;;17.80;99.90;;;;;;5090127;28;20059;-73
2022/05/15 02:19:18;;;;;;;10.75;6.00;;;17.80;99.90;;;;;;5103943;28;20387;-72
2022/05/15 02:21:47;;;;;;;11.35;6.32;;;17.80;99.90;;;;;;5102321;28;20039;-73
2022/05/15 02:24:14;;;;;;;14.68;7.07;;;17.70;99.90;;;;;;5103863;28;20476;-72
2022/05/15 02:26:40;;;;;;;14.90;7.65;;;17.70;99.90;;;;;;5103410;28;20484;-74
2022/05/15 02:29:07;;;;;;;15.20;6.68;;;17.70;99.90;;;;;;5102599;28;20507;-73
2022/05/15 02:31:33;;;;;;;16.30;7.18;;;17.70;99.90;;;;;;5102571;28;20028;-72
2022/05/15 02:34:00;;;;;;;11.70;6.05;;;17.70;99.90;;;;;;5103726;28;20034;-73
2022/05/15 02:36:30;;;;;;;19.88;6.00;;;17.60;99.90;;;;;;5103605;28;20460;-72
2022/05/15 02:38:56;;;;;;;18.60;6.60;;;17.60;99.90;;;;;;5102747;28;20028;-76
2022/05/15 02:41:22;;;;;;;12.82;6.07;;;17.70;99.90;;;;;;5101847;28;20132;-75
2022/05/15 02:43:48;;;;;;;13.82;6.47;;;17.70;99.90;;;;;;5102542;28;20039;-72
2022/05/15 02:46:14;;;;;;;11.95;6.18;;;17.60;99.90;;;;;;5102147;28;20100;-72
2022/05/15 02:51:27;;;;;;;9.77;6.32;;;17.70;99.90;;;;;;5103829;28;20101;-73
2022/05/15 02:53:53;;;;;;;13.95;6.88;;;17.60;99.90;;;;;;5103533;28;20024;-75
2022/05/15 02:56:23;;;;;;;10.20;6.80;;;17.60;99.90;;;;;;5102016;28;20050;-72
2022/05/15 02:58:49;;;;;;;13.88;6.25;;;17.60;99.90;;;;;;5103276;28;20685;-74
2022/05/15 03:01:16;;;;;;;13.50;6.60;;;17.60;99.90;;;;;;5103645;28;20468;-74
2022/05/15 03:03:42;;;;;;;16.77;6.80;;;17.60;99.90;;;;;;5103411;28;20445;-75
2022/05/15 03:06:09;;;;;;;14.90;6.53;;;17.60;99.90;;;;;;5102272;28;20052;-75
2022/05/15 03:08:38;;;;;;;13.07;6.18;;;17.60;99.90;;;;;;5101984;28;20020;-75
2022/05/15 03:11:04;;;;;;;19.27;7.10;;;17.50;99.90;;;;;;5102233;28;20035;-75
2022/05/15 03:13:30;;;;;;;12.15;6.18;;;17.50;99.90;;;;;;5102015;28;20024;-75
2022/05/15 03:15:56;;;;;;;12.00;6.38;;;17.40;99.90;;;;;;5093278;28;20035;-75
2022/05/15 03:18:22;;;;;;;11.98;6.93;;;17.40;99.90;;;;;;5094373;28;20035;-75
2022/05/15 03:20:48;;;;;;;13.75;6.75;;;17.30;99.90;;;;;;5099211;28;20480;-75
2022/05/15 03:23:15;;;;;;;16.20;6.97;;;17.30;99.90;;;;;;5100031;28;20028;-74
2022/05/15 03:25:41;;;;;;;15.38;7.35;;;17.20;99.90;;;;;;5100163;28;20054;-75
2022/05/15 03:28:09;;;;;;;16.65;7.03;;;17.20;99.90;;;;;;5099983;28;20028;-75
2022/05/15 03:30:40;;;;;;;18.40;7.22;;;17.10;99.90;;;;;;5099880;28;20431;-74
2022/05/15 03:33:08;;;;;;;13.55;7.20;;;17.10;99.90;;;;;;5098510;28;20058;-75
2022/05/15 03:35:34;;;;;;;11.35;6.28;;;17.00;99.90;;;;;;5099933;28;20104;-75
2022/05/15 03:38:01;;;;;;;14.15;6.72;;;17.00;99.90;;;;;;5098432;28;20032;-75
2022/05/15 03:40:27;;;;;;;9.15;6.70;;;17.00;99.90;;;;;;5099862;28;20396;-75
2022/05/15 03:42:53;;;;;;;10.93;6.93;;;16.90;99.90;;;;;;5099333;28;20506;-75
2022/05/15 03:45:20;;;;;;;13.75;7.93;;;16.90;99.90;;;;;;5099478;28;20032;-75
2022/05/15 03:47:52;;;;;;;11.00;6.50;;;16.80;99.90;;;;;;5099602;28;20039;-75
2022/05/15 03:50:20;;;;;;;14.95;7.10;;;16.80;99.90;;;;;;5098276;28;20024;-75
2022/05/15 03:52:46;;;;;;;14.20;6.82;;;16.80;99.90;;;;;;5098127;28;20032;-75
2022/05/15 03:55:13;;;;;;;20.55;7.95;;;16.70;99.90;;;;;;5098262;28;20044;-75
2022/05/15 03:57:39;;;;;;;10.48;6.95;;;16.70;99.90;;;;;;5099090;28;20028;-75
2022/05/15 04:00:10;;;;;;;11.85;7.32;;;16.60;99.90;;;;;;5099356;28;20025;-75
2022/05/15 04:02:38;;;;;;;13.40;6.68;;;16.60;99.90;;;;;;5098135;28;20413;-75
2022/05/15 04:05:06;;;;;;;14.52;7.75;;;16.60;99.90;;;;;;5099674;28;20035;-75
2022/05/15 04:07:32;;;;;;;10.43;6.93;;;16.60;99.90;;;;;;5099359;28;20050;-75
2022/05/15 04:09:58;;;;;;;16.45;7.43;;;16.70;99.90;;;;;;5097855;28;20438;-75
2022/05/15 04:12:23;;;;;;;12.27;7.03;;;16.70;99.90;;;;;;5099249;28;20039;-75
2022/05/15 04:14:49;;;;;;;14.20;7.68;;;16.80;99.90;;;;;;5098377;28;20030;-75
2022/05/15 04:17:16;;;;;;;16.20;6.75;;;16.80;99.90;;;;;;5086125;28;20365;-75
2022/05/15 04:19:41;;;;;;;15.68;6.57;;;16.80;99.90;;;;;;5092001;28;20032;-75
2022/05/15 04:22:07;;;;;;;13.93;7.28;;;16.80;99.90;;;;;;5099127;28;20091;-74
2022/05/15 04:24:34;;;;;;;16.52;6.82;;;16.80;99.90;;;;;;5097523;28;20024;-75
2022/05/15 04:27:01;;;;;;;21.35;7.28;;;16.80;99.90;;;;;;5097292;28;20032;-75
2022/05/15 04:29:27;;;;;;;16.88;7.20;;;16.70;99.90;;;;;;5097367;28;20469;-74
2022/05/15 04:31:55;;;;;;;12.68;7.55;;;16.70;99.90;;;;;;5098592;28;20020;-74
2022/05/15 04:34:30;;;;;;;19.52;7.75;;;16.70;99.90;;;;;;5098928;28;20104;-75
2022/05/15 04:36:56;;;;;;;11.98;6.90;;;16.80;99.90;;;;;;5098891;28;20024;-75
2022/05/15 04:39:22;;;;;;;23.85;8.35;;;16.80;99.90;;;;;;5098608;28;20032;-75
2022/05/15 04:41:48;;;;;;;16.35;8.40;;;16.80;99.90;;;;;;5097058;28;20048;-74
2022/05/15 04:44:15;;;;;;;17.02;7.65;;;16.80;99.90;;;;;;5098353;28;20499;-74
2022/05/15 04:46:41;;;;;;;25.70;8.82;;;16.80;99.90;;;;;;5097267;28;20058;-75
2022/05/15 04:49:07;;;;;;;14.63;7.05;;;16.90;99.90;;;;;;5097077;28;20494;-75
2022/05/15 04:51:33;;;;;;;17.65;7.20;;;16.90;99.90;;;;;;5098616;28;20012;-75
2022/05/15 04:53:59;;;;;;;13.98;7.15;;;16.90;99.90;;;;;;5096923;28;20051;-74
2022/05/15 04:56:26;;;;;;;24.80;8.95;;;16.90;99.90;;;;;;5096851;28;20020;-75
2022/05/15 04:58:52;;;;;;;15.52;7.85;;;16.90;99.90;;;;;;5096745;28;20032;-74
2022/05/15 05:01:18;;;;;;;11.63;7.90;;;17.00;99.90;;;;;;5098313;28;20020;-75
2022/05/15 05:03:44;;;;;;;15.05;8.13;;;17.00;99.90;;;;;;5097027;28;20032;-75
2022/05/15 05:06:11;;;;;;;16.95;8.30;;;17.00;99.90;;;;;;5098267;28;20391;-75
2022/05/15 05:08:37;;;;;;;13.38;6.60;;;17.10;99.90;;;;;;5098205;28;20024;-74
2022/05/15 05:11:03;;;;;;;19.05;7.63;;;17.10;99.90;;;;;;5096745;28;20035;-74
2022/05/15 05:13:29;;;;;;;15.43;7.50;;;17.10;99.90;;;;;;5096584;28;20035;-74
2022/05/15 05:15:55;;;;;;;17.60;8.18;;;17.10;99.90;;;;;;5086650;28;20036;-75
2022/05/15 05:18:21;;;;;;;18.38;7.38;;;17.20;99.90;;;;;;5091916;28;20032;-76
2022/05/15 05:20:47;;;;;;;13.18;6.60;;;17.20;99.90;;;;;;5086409;28;20040;-75
2022/05/15 05:23:14;;;;;;;18.70;7.45;;;17.30;99.90;;;;;;5096436;28;20062;-76
2022/05/15 05:25:40;;;;;;;14.70;7.35;;;17.40;99.90;;;;;;5096871;28;20027;-74
2022/05/15 05:28:06;;;;;;;19.63;7.60;;;17.40;99.90;;;;;;5097378;28;20020;-76
2022/05/15 05:30:33;;;;;;;20.95;7.40;;;17.50;99.90;;;;;;5097230;28;20022;-75
2022/05/15 05:32:59;;;;;;;16.85;7.15;;;17.60;99.90;;;;;;5094135;28;20060;-75
2022/05/15 05:35:26;;;;;;;16.63;7.88;;;17.60;99.90;;;;;;5097687;28;20031;-74
2022/05/15 05:37:53;;;;;;;20.60;7.35;;;17.70;99.90;;;;;;5097578;28;20076;-75
2022/05/15 05:40:20;;;;;;;16.58;7.18;;;17.70;99.90;;;;;;5096315;28;20070;-75
2022/05/15 05:42:46;;;;;;;19.73;8.20;;;17.80;99.90;;;;;;5096437;28;20024;-76
2022/05/15 05:45:13;;;;;;;18.25;7.50;;;17.80;99.90;;;;;;5095968;28;20552;-75
2022/05/15 05:47:39;;;;;;;16.65;6.85;;;17.90;99.90;;;;;;5097404;28;20400;-74
2022/05/15 05:50:08;;;;;;;18.67;7.70;;;18.10;99.90;;;;;;5096227;28;20024;-76
2022/05/15 05:52:41;;;;;;;20.27;8.27;;;18.20;99.90;;;;;;5097314;28;20031;-76
2022/05/15 05:55:10;;;;;;;19.60;8.65;;;18.20;99.90;;;;;;5097715;28;20035;-76
2022/05/15 05:57:37;;;;;;;18.70;6.43;;;18.30;99.90;;;;;;5096996;28;20396;-76
2022/05/15 06:00:06;;;;;;;14.73;7.97;;;18.40;99.90;;;;;;5097240;28;20024;-75
2022/05/15 06:02:32;;;;;;;18.63;7.70;;;18.40;99.90;;;;;;5097220;28;20028;-76
2022/05/15 06:04:58;;;;;;;24.20;7.95;;;18.50;99.90;;;;;;5097307;28;20024;-75
2022/05/15 06:07:26;;;;;;;15.90;7.38;;;18.50;99.90;;;;;;5097354;28;20043;-75
2022/05/15 06:09:53;;;;;;;19.33;7.60;;;18.60;99.90;;;;;;5097067;28;20024;-76
2022/05/15 06:12:21;;;;;;;12.45;7.13;;;18.60;99.90;;;;;;5095881;28;20047;-76
2022/05/15 06:14:47;;;;;;;16.20;8.35;;;18.70;99.90;;;;;;5096572;28;20021;-77
2022/05/15 06:17:13;;;;;;;23.48;7.50;;;18.80;99.90;;;;;;5078150;28;20060;-75
2022/05/15 06:19:40;;;;;;;22.02;7.97;;;18.80;99.90;;;;;;5090839;28;20024;-75
2022/05/15 06:22:07;;;;;;;12.80;7.45;;;18.90;99.90;;;;;;5097292;28;20024;-75
2022/05/15 06:24:33;;;;;;;18.15;8.73;;;19.00;99.90;;;;;;5096964;28;20032;-75
2022/05/15 06:27:02;;;;;;;12.90;6.82;;;19.00;99.90;;;;;;5097027;28;20059;-75
2022/05/15 06:29:28;;;;;;;12.73;8.13;;;19.10;99.90;;;;;;5095752;28;20016;-75
2022/05/15 06:31:54;;;;;;;13.80;7.15;;;19.10;99.90;;;;;;5078941;28;20070;-75
2022/05/15 06:34:20;;;;;;;15.05;8.23;;;19.20;99.90;;;;;;5077484;28;20025;-76
2022/05/15 06:36:46;;;;;;;13.60;7.55;;;19.30;99.90;;;;;;5083555;28;20384;-73
2022/05/15 06:39:12;;;;;;;16.05;7.32;;;19.30;99.90;;;;;;5096874;28;20107;-72
2022/05/15 06:41:38;;;;;;;16.55;6.57;;;19.30;99.90;;;;;;5095623;28;20039;-72
2022/05/15 06:44:05;;;;;;;15.68;6.60;;;19.40;99.90;;;;;;5095840;28;20031;-72
2022/05/15 06:46:32;;;;;;;19.92;7.07;;;19.50;99.90;;;;;;5097049;28;20048;-72
2022/05/15 06:48:58;;;;;;;13.20;6.75;;;19.60;99.90;;;;;;5090119;28;20154;-73
2022/05/15 06:51:25;;;;;;;16.95;6.45;;;19.70;99.90;;;;;;5086039;28;20028;-72
2022/05/15 06:53:51;;;;;;;18.33;6.70;;;19.70;99.90;;;;;;5097139;28;20073;-73
2022/05/15 06:59:02;;;;;;;19.50;6.45;;;19.80;99.90;;;;;;5099636;28;20030;-72
2022/05/15 07:01:28;;;;;;;13.60;6.50;;;19.80;99.90;;;;;;5100775;28;20416;-72
2022/05/15 07:03:54;;;;;;;18.80;6.82;;;19.90;99.90;;;;;;5099361;28;20020;-72
2022/05/15 07:06:20;;;;;;;13.23;6.38;;;19.90;99.90;;;;;;5100520;28;20030;-73
2022/05/15 07:08:46;;;;;;;13.02;6.80;;;19.90;99.90;;;;;;5100562;28;20020;-72
2022/05/15 07:11:12;;;;;;;9.50;6.50;;;19.90;99.90;;;;;;5100172;28;20060;-74
2022/05/15 07:13:39;;;;;;;12.82;6.32;;;20.10;99.90;;;;;;5098963;28;20023;-73
2022/05/15 07:16:05;;;;;;;12.98;6.90;;;20.10;99.90;;;;;;5087538;28;20531;-74
2022/05/15 07:18:31;;;;;;;11.00;6.15;;;20.20;99.90;;;;;;5097752;28;20058;-73
2022/05/15 07:20:57;;;;;;;14.25;6.18;;;20.20;99.90;;;;;;5092006;28;20032;-74
2022/05/15 07:23:26;;;;;;;16.75;7.38;;;20.20;99.90;;;;;;5097776;28;20068;-75
2022/05/15 07:25:53;;;;;;;18.35;7.25;;;20.30;99.90;;;;;;5100426;28;20028;-74
2022/05/15 07:28:19;;;;;;;26.92;6.22;;;20.40;99.90;;;;;;5099752;28;20384;-74
2022/05/15 07:30:45;;;;;;;18.55;7.03;;;20.50;99.90;;;;;;5098872;28;20028;-75
2022/05/15 07:33:11;;;;;;;17.13;6.43;;;20.60;99.90;;;;;;5098832;28;20423;-74
2022/05/15 07:35:37;;;;;;;19.38;6.82;;;20.60;99.90;;;;;;5100228;28;20438;-74
2022/05/15 07:38:03;;;;;;;23.48;5.97;;;20.70;99.90;;;;;;5098463;28;20024;-75
2022/05/15 07:40:28;;;;;;;14.65;7.15;;;20.70;99.90;;;;;;5098542;28;20146;-74
2022/05/15 07:42:54;;;;;;;15.38;6.45;;;20.70;99.90;;;;;;5098256;28;20169;-75
2022/05/15 07:45:20;;;;;;;17.95;6.18;;;20.90;99.90;;;;;;5099562;28;20048;-74
2022/05/15 07:47:46;;;;;;;23.08;6.97;;;21.00;99.90;;;;;;5099617;28;20021;-77
2022/05/15 07:50:14;;;;;;;20.15;6.68;;;21.10;99.90;;;;;;5088532;28;20029;-76
2022/05/15 07:52:40;;;;;;;12.68;6.20;;;21.30;99.90;;;;;;5097438;28;20571;-77
2022/05/15 07:55:06;;;;;;;20.42;7.10;;;21.40;99.90;;;;;;5098554;28;20047;-77
2022/05/15 07:57:36;;;;;;;12.57;6.45;;;21.50;99.90;;;;;;5099120;28;20031;-76
2022/05/15 08:00:05;;;;;;;15.93;6.25;;;21.40;99.90;;;;;;5099384;28;20483;-75
2022/05/15 08:02:31;;;;;;;15.90;7.07;;;21.40;99.90;;;;;;5081121;28;20032;-76
2022/05/15 08:10:27;;;;;;;19.88;7.10;;;21.50;99.90;;;;;;5099466;28;20030;-76
2022/05/15 08:12:53;;;;;;;15.77;6.75;;;21.60;99.90;;;;;;5099010;28;20484;-76
2022/05/15 08:15:19;;;;;;;14.50;6.15;;;21.60;99.90;;;;;;5094205;28;20079;-75
2022/05/15 08:17:44;;;;;;;11.07;6.15;;;21.60;99.90;;;;;;5090502;28;20487;-75
2022/05/15 08:23:39;;;;;;;13.05;5.90;;;21.70;99.90;;;;;;5098861;28;20027;-76
2022/05/15 08:25:46;;;;;;;15.40;5.82;;;21.80;99.90;;;;;;5093113;28;20039;-76
2022/05/15 08:28:13;;;;;;;24.45;7.05;;;21.90;99.90;;;;;;5098571;28;20027;-76
2022/05/15 08:30:39;;;;;;;14.98;5.50;;;21.90;99.90;;;;;;5098907;28;20024;-77
2022/05/15 08:33:08;;;;;;;20.95;7.03;;;21.90;99.90;;;;;;5097350;28;20024;-77
2022/05/15 08:35:34;;;;;;;11.80;5.75;;;22.10;99.90;;;;;;5098738;28;20039;-77
2022/05/15 08:38:00;;;;;;;11.98;5.05;;;22.20;99.90;;;;;;5091835;28;20048;-77
2022/05/15 08:40:32;;;;;;;13.80;6.75;;;22.20;99.90;;;;;;5098874;28;20034;-77
2022/05/15 08:42:59;;;;;;;17.20;6.32;;;22.40;99.90;;;;;;5087137;28;20021;-77
2022/05/15 08:45:30;;;;;;;15.82;6.72;;;22.50;99.90;;;;;;5077942;28;20037;-77
2022/05/15 08:48:06;;;;;;;13.23;5.80;;;22.50;99.90;;;;;;5078902;28;20025;-78
2022/05/15 08:50:38;;;;;;;19.58;6.35;;;22.40;99.90;;;;;;5077796;28;20069;-78
2022/05/15 08:53:14;;;;;;;17.67;6.10;;;22.50;99.90;;;;;;5076692;28;20052;-76
2022/05/15 08:55:47;;;;;;;15.30;5.20;;;22.60;99.90;;;;;;5079812;28;20518;-79
2022/05/15 08:58:24;;;;;;;13.20;5.32;;;22.60;99.90;;;;;;5076233;28;20028;-76
2022/05/15 09:00:51;;;;;;;12.93;5.80;;;22.70;99.90;;;;;;5079193;28;20049;-76
2022/05/15 09:03:30;;;;;;;14.82;5.45;;;22.80;99.90;;;;;;5098356;28;20031;-76
2022/05/15 09:06:24;;;;;;;16.75;5.47;;;23.00;99.90;;;;;;5098335;28;20027;-76
2022/05/15 09:09:18;;;;;;;17.50;5.45;;;22.90;99.90;;;;;;5092516;28;20021;-77
2022/05/15 09:12:00;;;;;;;16.23;5.93;;;23.00;99.90;;;;;;5092610;28;20103;-76
2022/05/15 09:14:47;;;;;;;11.30;4.93;;;23.00;99.90;;;;;;5097928;28;20035;-77
2022/05/15 09:17:51;;;;;;;21.48;6.50;;;22.90;99.90;;;;;;5076680;28;20472;-76
2022/05/15 09:20:39;;;;;;;24.17;6.05;;;22.90;99.90;;;;;;5096487;28;20077;-77
2022/05/15 09:23:26;;;;;;;19.42;6.10;;;23.00;99.90;;;;;;5096396;28;20517;-76
2022/05/15 09:26:40;;;;;;;16.58;6.38;;;23.10;99.90;;;;;;5096813;28;20020;-77
2022/05/15 09:29:15;;;;;;;17.75;5.85;;;23.30;99.90;;;;;;5097712;28;20515;-77
2022/05/15 09:31:42;;;;;;;15.20;5.57;;;23.50;99.90;;;;;;5097696;28;20028;-76
2022/05/15 09:34:21;;;;;;;14.20;5.57;;;23.70;99.90;;;;;;5097715;28;20126;-76
2022/05/15 09:36:49;;;;;;;12.70;5.38;;;23.80;99.90;;;;;;5097771;28;20066;-76
2022/05/15 09:39:43;;;;;;;12.60;5.45;;;24.00;99.90;;;;;;5097604;28;20091;-78
2022/05/15 09:45:20;;;;;;;8.60;4.70;;;24.10;99.90;;;;;;5097334;28;20475;-76
2022/05/15 09:48:10;;;;;;;11.85;4.47;;;24.00;99.90;;;;;;5085024;28;20058;-77
2022/05/15 09:50:46;;;;;;;17.67;5.10;;;24.10;99.90;;;;;;5097412;28;20020;-76
2022/05/15 09:53:36;;;;;;;16.75;5.18;;;24.10;99.90;;;;;;5097539;28;20365;-76
2022/05/15 09:56:09;;;;;;;11.02;5.85;;;24.20;99.90;;;;;;5085268;28;20032;-76
2022/05/15 09:58:36;;;;;;;18.90;5.18;;;24.20;99.90;;;;;;5096276;28;20021;-77
2022/05/15 10:01:20;;;;;;;15.75;5.35;;;24.10;99.90;;;;;;5080399;28;20013;-77
2022/05/15 10:03:57;;;;;;;10.95;5.53;;;24.00;99.90;;;;;;5077499;28;20033;-77
2022/05/15 10:06:27;;;;;;;13.85;5.20;;;23.90;99.90;;;;;;5075343;28;20024;-76
2022/05/15 10:09:15;;;;;;;10.43;4.32;;;23.80;99.90;;;;;;5076601;28;20048;-77
2022/05/15 10:11:46;;;;;;;14.02;5.80;;;23.90;99.90;;;;;;5079107;28;20024;-76
2022/05/15 10:14:33;;;;;;;9.20;4.70;;;23.90;99.90;;;;;;5078151;28;20056;-76
2022/05/15 10:17:01;;;;;;;16.80;5.35;;;23.90;99.90;;;;;;5078671;28;20017;-76
2022/05/15 10:19:33;;;;;;;18.30;5.85;;;24.00;99.90;;;;;;5076835;28;20484;-76
2022/05/15 10:22:21;;;;;;;13.00;5.07;;;24.10;99.90;;;;;;5075871;28;20553;-77
2022/05/15 10:24:48;;;;;;;13.13;4.88;;;24.20;99.90;;;;;;5076988;28;20024;-77
2022/05/15 10:27:29;;;;;;;16.90;5.18;;;24.30;99.90;;;;;;5077513;28;20357;-76
2022/05/15 10:30:04;;;;;;;15.68;4.88;;;24.40;99.90;;;;;;5081145;28;20399;-76
2022/05/15 10:32:41;;;;;;;14.43;6.25;;;24.60;99.90;;;;;;5081781;28;20025;-76
2022/05/15 10:35:11;;;;;;;15.82;5.25;;;24.80;99.90;;;;;;5078683;28;20107;-77
2022/05/15 10:37:53;;;;;;;11.20;4.55;;;25.00;99.90;;;;;;5082443;28;20016;-76
2022/05/15 10:40:29;;;;;;;15.73;4.72;;;25.20;99.90;;;;;;5081466;28;20709;-76
2022/05/15 10:43:21;;;;;;;17.73;5.00;;;25.30;99.90;;;;;;5084915;28;20076;-78
2022/05/15 10:45:53;;;;;;;16.65;4.53;;;25.40;99.90;;;;;;5079553;28;20097;-77
2022/05/15 10:48:40;;;;;;;10.02;3.78;;;25.30;99.90;;;;;;5079702;28;20100;-76
2022/05/15 10:51:15;;;;;;;11.00;3.95;;;25.40;99.90;;;;;;5083412;28;20498;-76
2022/05/15 10:59:45;;;;;;;26.00;4.87;;;25.60;99.90;;;;;;5080445;28;20101;-77
2022/05/15 11:02:19;;;;;;;10.30;4.13;;;25.50;99.90;;;;;;5082487;28;20031;-77
2022/05/15 11:04:49;;;;;;;13.02;4.97;;;25.40;99.90;;;;;;5080459;28;20021;-75
2022/05/15 11:07:56;;;;;;;14.35;4.53;;;25.40;99.90;;;;;;5083697;28;20024;-77
2022/05/15 11:10:22;;;;;;;16.17;3.75;;;25.30;99.90;;;;;;5073913;28;20029;-75
2022/05/15 11:12:59;;;;;;;12.23;4.15;;;25.10;99.90;;;;;;5078809;28;20492;-76
2022/05/15 11:15:59;;;;;;;14.13;4.43;;;25.10;99.90;;;;;;5080569;28;20016;-74
2022/05/15 11:19:02;;;;;;;8.43;3.73;;;25.30;99.90;;;;;;5062746;28;20046;-76
2022/05/15 11:22:15;;;;;;;17.55;4.38;;;25.50;99.90;;;;;;5082158;28;20016;-75
2022/05/15 11:25:15;;;;;;;13.63;3.83;;;25.80;99.90;;;;;;5058286;28;20044;-76
2022/05/15 11:27:48;;;;;;;18.70;4.13;;;25.80;99.40;;;;;;5100047;28;20024;-75
2022/05/15 11:30:31;;;;;;;8.43;3.22;;;25.90;99.90;;;;;;5098688;28;20057;-77
2022/05/15 11:33:08;;;;;;;21.33;3.92;;;25.90;99.50;;;;;;5099859;28;20016;-75
2022/05/15 11:36:01;;;;;;;17.95;3.70;;;25.90;99.90;;;;;;5100121;28;20491;-76
2022/05/15 11:38:36;;;;;;;12.40;3.88;;;25.90;99.50;;;;;;5099940;28;20024;-75
2022/05/15 11:41:36;;;;;;;20.35;4.65;;;25.80;99.00;;;;;;5098541;28;20020;-75
2022/05/15 11:44:18;;;;;;;16.15;4.72;;;25.90;99.30;;;;;;5099700;28;20430;-75
2022/05/15 11:46:47;;;;;;;14.98;3.85;;;25.90;97.90;;;;;;5098267;28;20044;-75
2022/05/15 11:49:24;;;;;;;16.42;4.13;;;25.90;99.50;;;;;;5098219;28;20031;-76
2022/05/15 11:52:14;;;;;;;13.95;4.40;;;25.90;97.80;;;;;;5099915;28;20024;-74
2022/05/15 11:54:42;;;;;;;14.52;4.20;;;26.00;98.50;;;;;;5081634;28;20146;-75
2022/05/15 11:57:13;;;;;;;10.20;3.70;;;26.00;98.00;;;;;;5087958;28;20086;-76
2022/05/15 11:59:50;;;;;;;14.18;4.03;;;26.10;97.20;;;;;;5086313;28;20020;-76
2022/05/15 12:02:29;;;;;;;13.02;3.97;;;26.10;97.90;;;;;;5083680;28;20030;-76
2022/05/15 12:05:21;;;;;;;18.95;4.20;;;26.20;96.30;;;;;;5099669;28;20103;-76
2022/05/15 12:08:19;;;;;;;29.05;4.40;;;26.20;97.30;;;;;;5098100;28;20028;-76
2022/05/15 12:10:45;;;;;;;11.07;3.15;;;26.20;98.00;;;;;;5098802;28;20028;-76
2022/05/15 12:13:13;;;;;;;19.88;5.05;;;26.50;98.00;;;;;;5097871;28;20423;-76
2022/05/15 12:15:46;;;;;;;9.50;3.08;;;26.60;96.70;;;;;;5091470;28;20038;-76
2022/05/15 12:18:44;;;;;;;11.07;3.00;;;26.30;96.10;;;;;;5081053;28;20519;-75
2022/05/15 12:21:14;;;;;;;17.45;4.15;;;26.00;96.50;;;;;;5077500;28;20878;-76
2022/05/15 12:24:27;;;;;;;;;;;25.60;96.00;;;;;;5089788;28;20028;-76
2022/05/15 12:26:56;;;;;;;11.60;4.13;;;25.80;96.70;;;;;;5074158;28;19904;-77
2022/05/15 12:29:52;;;;;;;16.83;4.13;;;25.90;96.30;;;;;;5076817;28;20126;-77
2022/05/15 12:32:31;;;;;;;15.25;3.78;;;26.10;96.30;;;;;;5069887;28;20541;-77
2022/05/15 12:34:58;;;;;;;14.95;3.78;;;26.40;96.40;;;;;;5086695;28;20051;-77
2022/05/15 12:37:29;;;;;;;8.50;3.60;;;26.40;95.50;;;;;;5076929;28;20034;-75
2022/05/15 12:39:58;;;;;;;17.45;4.47;;;26.40;95.50;;;;;;5078321;28;20028;-76
2022/05/15 12:42:40;;;;;;;14.23;3.75;;;26.40;95.50;;;;;;5076731;28;20016;-75
2022/05/15 12:45:19;;;;;;;11.45;4.57;;;26.30;95.70;;;;;;5078297;28;20044;-76
2022/05/15 12:47:58;;;;;;;13.32;3.17;;;26.20;95.90;;;;;;5078236;28;20020;-75
2022/05/15 12:50:24;;;;;;;23.98;5.30;;;26.00;95.90;;;;;;5075867;28;20024;-76
2022/05/15 12:52:58;;;;;;;21.13;3.92;;;25.90;95.70;;;;;;5103760;28;20477;-78
2022/05/15 12:55:33;;;;;;;11.00;4.07;;;25.90;96.20;;;;;;5077782;28;20028;-77
2022/05/15 12:58:05;;;;;;;17.63;3.70;;;25.80;95.30;;;;;;5089212;28;20106;-76
2022/05/15 13:00:38;;;;;;;18.63;3.90;;;25.80;96.50;;;;;;5087210;28;20095;-78
2022/05/15 13:03:09;;;;;;;11.07;3.65;;;26.00;96.60;;;;;;5075135;28;20116;-76
2022/05/15 13:05:47;;;;;;;10.77;2.88;;;26.30;96.20;;;;;;5082703;28;20021;-76
2022/05/15 13:08:13;;;;;;;11.25;3.70;;;26.50;95.40;;;;;;5077871;28;20400;-78
2022/05/15 13:10:52;;;;;;;14.40;4.28;;;26.60;96.60;;;;;;5086483;28;20020;-77
2022/05/15 13:13:35;;;;;;;17.27;4.20;;;26.70;96.70;;;;;;5095005;28;20031;-75
2022/05/15 13:16:05;;;;;;;15.98;3.95;;;26.70;95.20;;;;;;5087301;28;20036;-75
2022/05/15 13:18:34;;;;;;;16.50;3.55;;;26.80;95.50;;;;;;5111416;28;20404;-76
2022/05/15 13:21:04;;;;;;;16.80;3.30;;;26.80;94.80;;;;;;5088444;28;20040;-76